createdAt,value
2023-01-20T00:03:57.046Z,97013.69
2023-01-20T00:09:01.135Z,97016.56
2023-01-20T00:14:03.445Z,97023.88
2023-01-20T00:19:05.291Z,97023.72
2023-01-20T00:24:07.110Z,97027.22
2023-01-20T00:29:10.040Z,97032.56
2023-01-20T00:34:12.073Z,97037.81
2023-01-20T00:39:13.873Z,97045.88
2023-01-20T00:44:15.661Z,97064.31
2023-01-20T00:49:17.471Z,97074.28
2023-01-20T00:54:19.393Z,97078.34
2023-01-20T00:59:21.200Z,97087.63
2023-01-20T01:04:23.119Z,97096.22
2023-01-20T01:09:24.968Z,97095.41
2023-01-20T01:14:26.811Z,97095.28
2023-01-20T01:19:28.630Z,97105.81
2023-01-20T01:24:30.436Z,97105.69
2023-01-20T01:29:32.257Z,97116.22
2023-01-20T01:34:34.420Z,97117.03
2023-01-20T01:39:36.266Z,97123.59
2023-01-20T01:44:39.695Z,97115.66
2023-01-20T01:49:41.541Z,97119.53
2023-01-20T01:54:45.638Z,97132.59
2023-01-20T01:59:47.569Z,97135.28
2023-01-20T02:04:50.091Z,97131.94
2023-01-20T02:09:53.009Z,97141.72
2023-01-20T02:14:58.931Z,97135.59
2023-01-20T02:20:21.899Z,97151.06
2023-01-20T02:26:09.001Z,97153.75
2023-01-20T02:31:58.784Z,97160.63
2023-01-20T02:37:26.254Z,97160.34
2023-01-20T02:42:39.556Z,97163.03
2023-01-20T02:48:10.154Z,97175.44
2023-01-20T02:53:14.221Z,97178.13
2023-01-20T02:58:40.933Z,97182.00
2023-01-20T03:03:46.635Z,97182.91
2023-01-20T03:08:52.613Z,97187.22
2023-01-20T03:14:05.240Z,97189.34
2023-01-20T03:19:07.114Z,97189.34
2023-01-20T03:24:09.253Z,97198.19
2023-01-20T03:29:12.683Z,97203.06
2023-01-20T03:34:19.696Z,97208.03
2023-01-20T03:39:24.343Z,97208.97
2023-01-20T03:44:41.190Z,97218.16
2023-01-20T03:50:06.927Z,97216.66
2023-01-20T03:55:35.054Z,97218.25
2023-01-20T04:00:42.275Z,97223.75
2023-01-20T04:05:46.114Z,97229.28
2023-01-20T04:10:50.372Z,97229.06
2023-01-20T04:15:52.471Z,97234.31
2023-01-20T04:21:01.642Z,97242.25
2023-01-20T04:26:03.520Z,97236.16
2023-01-20T04:31:05.595Z,97227.94
2023-01-20T04:36:07.704Z,97235.78
2023-01-20T04:41:12.051Z,97243.50
2023-01-20T04:46:15.420Z,97250.38
2023-01-20T04:51:17.471Z,97250.97
2023-01-20T04:56:19.275Z,97258.53
2023-01-20T05:01:21.335Z,97263.38
2023-01-20T05:06:23.194Z,97272.94
2023-01-20T05:11:25.055Z,97271.53
2023-01-20T05:16:31.950Z,97279.97
2023-01-20T05:21:33.881Z,97283.38
2023-01-20T05:26:35.731Z,97299.41
2023-01-20T05:31:38.795Z,97298.94
2023-01-20T05:36:40.646Z,97304.84
2023-01-20T05:41:42.725Z,97313.00
2023-01-20T05:46:44.663Z,97316.47
2023-01-20T05:51:46.592Z,97324.72
2023-01-20T05:56:49.296Z,97328.53
2023-01-20T06:01:51.181Z,97337.09
2023-01-20T06:06:53.547Z,97339.91
2023-01-20T06:11:55.376Z,97349.06
2023-01-20T06:16:57.173Z,97346.19
2023-01-20T06:21:59.017Z,97352.78
2023-01-20T06:27:00.813Z,97357.09
2023-01-20T06:32:02.653Z,97363.84
2023-01-20T06:37:04.484Z,97372.56
2023-01-20T06:42:06.987Z,97380.94
2023-01-20T06:47:08.832Z,97386.97
2023-01-20T06:52:10.720Z,97396.25
2023-01-20T06:57:12.550Z,97408.34
2023-01-20T07:02:14.499Z,97409.63
2023-01-20T07:07:16.379Z,97413.25
2023-01-20T07:12:18.213Z,97422.19
2023-01-20T07:17:20.091Z,97427.75
2023-01-20T07:22:24.017Z,97427.41
2023-01-20T07:27:25.837Z,97430.66
2023-01-20T07:32:31.114Z,97444.38
2023-01-20T07:37:32.964Z,97446.94
2023-01-20T07:42:37.580Z,97456.44
2023-01-20T07:47:39.389Z,97466.31
2023-01-20T07:52:41.280Z,97468.88
2023-01-20T07:57:43.112Z,97476.22
2023-01-20T08:02:45.063Z,97483.72
2023-01-20T08:07:51.184Z,97488.63
2023-01-20T08:12:52.993Z,97494.19
2023-01-20T08:17:55.746Z,97497.34
2023-01-20T08:22:57.568Z,97503.34
2023-01-20T08:27:59.474Z,97503.69
2023-01-20T08:33:01.327Z,97527.41
2023-01-20T08:38:03.621Z,97530.53
2023-01-20T08:43:05.425Z,97538.31
2023-01-20T08:48:08.843Z,97548.44
2023-01-20T08:53:10.672Z,97550.13
2023-01-20T08:58:12.670Z,97561.78
2023-01-20T09:03:14.496Z,97565.97
2023-01-20T09:08:17.625Z,97566.84
2023-01-20T09:13:19.477Z,97574.50
2023-01-20T09:18:21.239Z,97581.63
2023-01-20T09:23:23.069Z,97576.72
2023-01-20T09:28:25.008Z,97581.97
2023-01-20T09:33:27.431Z,97591.06
2023-01-20T09:38:47.706Z,97592.22
2023-01-20T09:44:13.911Z,97596.91
2023-01-20T09:50:02.870Z,97603.00
2023-01-20T09:55:17.033Z,97609.16
2023-01-20T10:00:23.161Z,97603.81
2023-01-20T10:05:33.007Z,97602.72
2023-01-20T10:10:49.935Z,97598.47
2023-01-20T10:15:56.639Z,97595.91
2023-01-20T10:21:01.612Z,97608.09
2023-01-20T10:26:11.689Z,97604.22
2023-01-20T10:31:28.222Z,97610.09
2023-01-20T10:36:31.152Z,97606.22
2023-01-20T10:41:44.242Z,97606.47
2023-01-20T10:46:55.087Z,97618.75
2023-01-20T10:52:02.883Z,97613.28
2023-01-20T10:57:06.438Z,97618.19
2023-01-20T11:02:15.598Z,97617.38
2023-01-20T11:07:18.812Z,97622.75
2023-01-20T11:12:25.335Z,97632.13
2023-01-20T11:17:27.216Z,97630.06
2023-01-20T11:22:35.589Z,97630.44
2023-01-20T11:27:42.614Z,97636.97
2023-01-20T11:32:44.668Z,97643.22
2023-01-20T11:37:46.601Z,97644.16
2023-01-20T11:42:49.920Z,97647.63
2023-01-20T11:48:06.009Z,97656.56
2023-01-20T11:53:20.540Z,97656.06
2023-01-20T11:58:26.197Z,97666.06
2023-01-20T12:03:51.421Z,97667.03
2023-01-20T12:08:56.837Z,97678.00
2023-01-20T12:14:27.690Z,97679.44
2023-01-20T12:19:44.924Z,97674.31
2023-01-20T12:25:08.117Z,97675.28
2023-01-20T12:30:42.271Z,97688.97
2023-01-20T12:36:06.829Z,97689.66
2023-01-20T12:41:24.457Z,97701.03
2023-01-20T12:46:35.655Z,97689.91
2023-01-20T12:52:09.719Z,97700.69
2023-01-20T12:57:33.214Z,97707.13
2023-01-20T13:02:41.118Z,97717.84
2023-01-20T13:08:00.341Z,97710.50
2023-01-20T13:13:23.891Z,97715.44
2023-01-20T13:19:04.016Z,97721.13
2023-01-20T13:24:06.345Z,97723.72
2023-01-20T13:29:21.702Z,97732.69
2023-01-20T13:34:31.092Z,97740.16
2023-01-20T13:39:46.885Z,97745.75
2023-01-20T13:45:08.736Z,97747.09
2023-01-20T13:50:34.871Z,97750.75
2023-01-20T13:55:45.697Z,97757.44
2023-01-20T14:00:56.153Z,97751.63
2023-01-20T14:06:07.141Z,97760.00
2023-01-20T14:11:17.927Z,97760.75
2023-01-20T14:16:30.322Z,97765.25
2023-01-20T14:21:40.456Z,97770.50
2023-01-20T14:26:42.307Z,97772.72
2023-01-20T14:31:46.094Z,97788.47
2023-01-20T14:36:48.390Z,97792.44
2023-01-20T14:41:51.591Z,97794.78
2023-01-20T14:46:56.516Z,97803.69
2023-01-20T14:51:58.962Z,97811.03
2023-01-20T14:57:18.867Z,97810.72
2023-01-20T15:02:31.036Z,97823.44
2023-01-20T15:07:33.084Z,97822.03
2023-01-20T15:12:35.481Z,97834.97
2023-01-20T15:17:41.694Z,97846.59
2023-01-20T15:22:44.453Z,97844.47
2023-01-20T15:27:53.730Z,97859.09
2023-01-20T15:32:55.722Z,97859.06
2023-01-20T15:37:57.936Z,97871.00
2023-01-20T15:42:59.928Z,97877.69
2023-01-20T15:48:05.261Z,97883.81
2023-01-20T15:53:07.083Z,97884.00
2023-01-20T15:58:24.328Z,97893.06
2023-01-20T16:03:27.916Z,97889.56
2023-01-20T16:08:36.983Z,97903.38
2023-01-20T16:13:38.927Z,97909.22
2023-01-20T16:18:41.762Z,97911.69
2023-01-20T16:23:44.200Z,97913.34
2023-01-20T16:28:46.105Z,97926.19
2023-01-20T16:33:48.064Z,97922.22
2023-01-20T16:38:51.418Z,97930.44
2023-01-20T16:43:55.120Z,97939.53
2023-01-20T16:49:01.898Z,97943.66
2023-01-20T16:54:03.952Z,97951.81
2023-01-20T16:59:07.360Z,97961.13
2023-01-20T17:04:10.887Z,97965.22
2023-01-20T17:09:14.029Z,97969.50
2023-01-20T17:14:15.903Z,97976.56
2023-01-20T17:19:17.964Z,97975.34
2023-01-20T17:24:19.870Z,97987.78
2023-01-20T17:29:22.076Z,97986.97
2023-01-20T17:34:23.959Z,97984.63
2023-01-20T17:39:25.932Z,97994.75
2023-01-20T17:44:27.724Z,97994.97
2023-01-20T17:49:29.531Z,98004.31
2023-01-20T17:54:31.642Z,98008.00
2023-01-20T17:59:33.617Z,98019.06
2023-01-20T18:04:35.441Z,98024.34
2023-01-20T18:09:37.384Z,98029.16
2023-01-20T18:14:39.256Z,98040.75
2023-01-20T18:19:41.101Z,98043.00
2023-01-20T18:24:43.054Z,98046.59
2023-01-20T18:29:45.273Z,98044.47
2023-01-20T18:34:47.137Z,98042.81
2023-01-20T18:39:49.036Z,98050.78
2023-01-20T18:44:50.893Z,98054.78
2023-01-20T18:49:52.714Z,98057.22
2023-01-20T18:54:54.885Z,98054.06
2023-01-20T18:59:56.708Z,98056.63
2023-01-20T19:04:58.747Z,98061.44
2023-01-20T19:10:00.539Z,98071.47
2023-01-20T19:15:02.383Z,98074.91
2023-01-20T19:20:04.847Z,98081.47
2023-01-20T19:25:07.182Z,98075.94
2023-01-20T19:30:10.311Z,98084.66
2023-01-20T19:35:12.337Z,98081.78
2023-01-20T19:40:14.780Z,98079.94
2023-01-20T19:45:16.839Z,98084.34
2023-01-20T19:50:19.256Z,98091.19
2023-01-20T19:55:21.145Z,98092.84
2023-01-20T20:00:23.092Z,98105.50
2023-01-20T20:05:25.007Z,98105.72
2023-01-20T20:10:26.839Z,98109.69
2023-01-20T20:15:28.712Z,98108.56
2023-01-20T20:20:33.049Z,98118.38
2023-01-20T20:25:37.432Z,98119.19
2023-01-20T20:30:42.228Z,98123.78
2023-01-20T20:35:45.370Z,98128.88
2023-01-20T20:40:47.287Z,98126.69
2023-01-20T20:45:49.081Z,98131.22
2023-01-20T20:50:51.132Z,98143.94
2023-01-20T20:55:55.372Z,98139.09
2023-01-20T21:01:02.786Z,98145.34
2023-01-20T21:06:04.763Z,98144.59
2023-01-20T21:11:08.415Z,98153.75
2023-01-20T21:16:15.113Z,98164.91
2023-01-20T21:21:19.828Z,98169.38
2023-01-20T21:26:23.411Z,98177.47
2023-01-20T21:31:28.237Z,98168.72
2023-01-20T21:36:31.474Z,98169.91
2023-01-20T21:41:33.271Z,98181.84
2023-01-20T21:46:38.957Z,98175.81
2023-01-20T21:51:59.793Z,98176.38
2023-01-20T21:57:02.185Z,98187.44
2023-01-20T22:02:04.234Z,98181.78
2023-01-20T22:07:06.772Z,98194.53
2023-01-20T22:12:09.487Z,98195.06
2023-01-20T22:17:13.594Z,98202.44
2023-01-20T22:22:15.508Z,98205.44
2023-01-20T22:27:17.376Z,98205.66
2023-01-20T22:32:19.179Z,98212.38
2023-01-20T22:37:21.259Z,98213.31
2023-01-20T22:42:23.120Z,98216.03
2023-01-20T22:47:24.901Z,98224.88
2023-01-20T22:52:26.723Z,98226.44
2023-01-20T22:57:31.550Z,98231.44
2023-01-20T23:02:33.779Z,98224.84
2023-01-20T23:07:38.471Z,98231.53
2023-01-20T23:12:40.275Z,98229.00
2023-01-20T23:17:42.065Z,98236.97
2023-01-20T23:22:43.855Z,98236.28
2023-01-20T23:27:45.682Z,98237.53
2023-01-20T23:32:47.496Z,98250.31
2023-01-20T23:37:49.795Z,98233.84
2023-01-20T23:42:51.850Z,98243.06
2023-01-20T23:47:53.834Z,98243.06
2023-01-20T23:52:55.631Z,98245.81
2023-01-20T23:57:57.407Z,98251.91
